Time;durP1;ratioP1;P1;durP2;ratioP2;P2;SDS_P1;SDS_P2;PMS_P1;PMS_P2;Temp;Humidity;BMP_temperature;BMP_pressure;BME280_temperature;BME280_humidity;BME280_pressure;Samples;Min_cycle;Max_cycle;Signal;HPM_P1;HPM_P2
2022/07/12 07:58:47;;;;;;;6.78;5.13;;;;;;;20.53;69.68;102328.09;5280051;28;20390;-69
2022/07/12 08:01:18;;;;;;;7.40;5.05;;;;;;;20.50;68.50;102328.72;5272960;28;20044;-69
2022/07/12 08:03:49;;;;;;;4.55;4.13;;;;;;;20.58;68.46;102330.81;5257244;28;20543;-68
2022/07/12 08:06:21;;;;;;;5.20;4.70;;;;;;;20.57;67.61;102334.78;5237289;28;20026;-69
2022/07/12 08:08:52;;;;;;;5.15;4.38;;;;;;;20.65;67.53;102333.16;5240480;28;20386;-68
2022/07/12 08:11:23;;;;;;;5.72;5.22;;;;;;;20.71;67.48;102334.72;5258623;28;20465;-69
2022/07/12 08:13:54;;;;;;;5.43;4.93;;;;;;;20.73;67.97;102338.00;5253170;28;20415;-68
2022/07/12 08:16:26;;;;;;;5.25;4.75;;;;;;;20.80;68.16;102332.75;5249890;28;20518;-68
2022/07/12 08:18:57;;;;;;;9.27;5.57;;;;;;;20.88;67.33;102335.94;5258407;28;20059;-68
2022/07/12 08:21:29;;;;;;;6.50;5.90;;;;;;;20.93;66.96;102335.81;5255484;28;20075;-70
2022/07/12 08:24:00;;;;;;;6.63;5.70;;;;;;;20.99;67.59;102328.88;5254765;28;20021;-70
2022/07/12 08:26:32;;;;;;;6.30;5.80;;;;;;;20.99;66.66;102328.88;5247751;28;20033;-70
2022/07/12 08:29:03;;;;;;;6.72;6.13;;;;;;;21.04;66.25;102335.22;5242209;28;20030;-70
2022/07/12 08:31:35;;;;;;;6.75;6.15;;;;;;;21.14;65.07;102339.72;5258625;28;20036;-69
2022/07/12 08:34:06;;;;;;;7.18;6.13;;;;;;;21.15;65.26;102332.91;5256860;28;20025;-70
2022/07/12 08:36:37;;;;;;;7.03;5.60;;;;;;;21.35;65.27;102350.44;5261217;28;20388;-70
2022/07/12 08:39:08;;;;;;;5.53;5.10;;;;;;;21.33;64.80;102349.91;5253081;28;20429;-69
2022/07/12 08:41:40;;;;;;;6.32;5.82;;;;;;;21.32;64.39;102336.94;5260594;28;20087;-70
2022/07/12 08:44:11;;;;;;;6.05;5.55;;;;;;;21.26;64.55;102345.56;5245388;28;20026;-69
2022/07/12 08:46:43;;;;;;;6.28;5.68;;;;;;;21.25;64.32;102349.56;5236923;28;20140;-70
2022/07/12 08:49:14;;;;;;;5.97;5.15;;;;;;;21.32;64.33;102353.88;5237984;28;20033;-70
2022/07/12 08:51:46;;;;;;;5.45;4.97;;;;;;;21.31;64.08;102355.06;5238831;28;20029;-70
2022/07/12 08:54:17;;;;;;;5.57;4.93;;;;;;;21.33;65.14;102349.91;5255399;28;20025;-74
2022/07/12 08:56:48;;;;;;;6.45;5.10;;;;;;;21.38;64.27;102358.22;5257434;28;20043;-74
2022/07/12 08:59:21;;;;;;;6.43;5.28;;;;;;;21.54;63.56;102367.94;5255622;28;20025;-75
2022/07/12 09:01:53;;;;;;;5.15;4.65;;;;;;;21.51;62.56;102367.78;5254335;28;20019;-74
2022/07/12 09:04:29;;;;;;;6.20;5.60;;;;;;;21.57;63.04;102361.63;5254917;28;20176;-75
2022/07/12 09:07:14;;;;;;;24.15;21.83;;;;;;;21.73;62.92;102359.19;5244717;28;20068;-73
2022/07/12 09:09:48;;;;;;;8.88;8.05;;;;;;;21.87;63.13;102364.69;5241997;28;20017;-75
2022/07/12 09:12:22;;;;;;;9.77;5.53;;;;;;;21.93;62.26;102361.38;5237516;28;20044;-74
2022/07/12 09:14:54;;;;;;;6.43;5.83;;;;;;;21.91;61.70;102368.53;5240762;28;20029;-74
2022/07/12 09:17:25;;;;;;;6.80;6.13;;;;;;;21.88;61.16;102355.03;5244278;28;20051;-75
2022/07/12 09:19:57;;;;;;;8.93;5.70;;;;;;;21.99;61.31;102349.91;5239245;28;20108;-71
2022/07/12 09:22:28;;;;;;;8.25;5.60;;;;;;;21.97;61.41;102344.59;5240025;28;20057;-73
2022/07/12 09:25:20;;;;;;;6.80;5.65;;;;;;;22.14;62.05;102357.91;5252585;28;20104;-72
2022/07/12 09:27:56;;;;;;;7.82;6.93;;;;;;;22.20;60.24;102352.94;5240622;28;20063;-72
2022/07/12 09:30:28;;;;;;;;;;;;;;;22.35;60.15;102352.44;5236025;28;20091;-73
2022/07/12 09:36:17;;;;;;;6.32;5.65;;;;;;;22.35;60.05;102336.28;5241716;28;20033;-72
2022/07/12 09:38:53;;;;;;;6.70;6.07;;;;;;;22.47;59.31;102341.28;5236627;28;20057;-72
2022/07/12 09:41:25;;;;;;;7.05;5.63;;;;;;;22.44;58.42;102341.09;5233824;28;20022;-73
2022/07/12 09:43:58;;;;;;;7.07;5.35;;;;;;;22.58;58.79;102339.75;5243232;28;20037;-72
2022/07/12 09:46:32;;;;;;;4.70;4.10;;;;;;;22.56;58.07;102341.25;5242577;28;20014;-72
2022/07/12 09:49:03;;;;;;;5.75;3.72;;;;;;;22.55;57.07;102342.44;5226590;28;20030;-72
2022/07/12 09:51:37;;;;;;;6.53;4.60;;;;;;;22.61;58.80;102337.41;5222208;28;20453;-73
2022/07/12 09:54:12;;;;;;;5.10;4.70;;;;;;;22.64;59.15;102348.06;5222842;28;20099;-71
2022/07/12 09:56:46;;;;;;;6.72;5.80;;;;;;;22.62;58.46;102337.06;5227081;28;20385;-71
2022/07/12 09:59:22;;;;;;;4.22;3.92;;;;;;;22.75;59.02;102340.84;5243025;28;20406;-73
2022/07/12 10:01:59;;;;;;;4.75;4.35;;;;;;;22.90;59.04;102329.00;5242741;28;20048;-72
2022/07/12 10:04:30;;;;;;;7.82;5.30;;;;;;;22.94;58.90;102335.66;5226522;28;20038;-71
2022/07/12 10:07:02;;;;;;;7.53;6.80;;;;;;;23.03;58.88;102326.31;5232900;28;20029;-72
2022/07/12 10:09:35;;;;;;;5.85;5.35;;;;;;;23.07;58.21;102327.31;5242188;28;20075;-72
2022/07/12 10:12:12;;;;;;;4.25;3.92;;;;;;;23.12;57.66;102325.13;5263081;28;20029;-73
2022/07/12 10:14:44;;;;;;;5.40;4.93;;;;;;;23.07;57.00;102330.16;5246752;28;20052;-71
2022/07/12 10:17:22;;;;;;;5.07;4.05;;;;;;;23.22;57.19;102329.56;5241538;28;20030;-72
2022/07/12 10:20:18;;;;;;;5.25;4.78;;;;;;;23.41;57.30;102323.47;5232877;28;20038;-71
2022/07/12 10:23:12;;;;;;;;;;;;;;;23.51;56.68;102314.56;5248458;28;20029;-73
2022/07/12 10:25:43;;;;;;;8.15;7.35;;;;;;;23.61;56.07;102314.19;5239096;28;19929;-72
2022/07/12 10:28:15;;;;;;;15.20;13.80;;;;;;;23.64;55.70;102309.81;5221813;28;20033;-77
2022/07/12 10:30:48;;;;;;;6.75;5.57;;;;;;;23.69;56.50;102309.63;5239288;28;20031;-74
2022/07/12 10:33:22;;;;;;;15.65;7.63;;;;;;;23.68;56.65;102310.81;5239686;28;20025;-73
2022/07/12 10:36:02;;;;;;;5.93;5.43;;;;;;;23.77;57.00;102311.59;5236322;28;20036;-73
2022/07/12 10:38:34;;;;;;;12.15;5.82;;;;;;;23.91;55.59;102316.19;5234898;28;20037;-73
2022/07/12 10:41:19;;;;;;;7.20;4.93;;;;;;;23.95;54.75;102314.28;5241694;28;20022;-71
2022/07/12 10:44:05;;;;;;;6.35;5.75;;;;;;;23.93;54.80;102310.97;5260236;28;20028;-74
2022/07/12 10:46:58;;;;;;;5.43;4.93;;;;;;;23.97;54.60;102314.78;5262428;28;20031;-74
2022/07/12 10:49:31;;;;;;;6.20;4.60;;;;;;;23.97;54.12;102312.75;5263090;28;20123;-75
2022/07/12 10:52:11;;;;;;;5.72;4.88;;;;;;;23.99;54.27;102310.41;5253950;28;20485;-75
2022/07/12 10:55:07;;;;;;;5.10;4.60;;;;;;;24.12;53.22;102304.81;5246959;28;20033;-74
2022/07/12 10:57:50;;;;;;;6.68;5.75;;;;;;;24.27;52.90;102307.00;5263059;28;20120;-76
2022/07/12 11:00:22;;;;;;;4.00;3.60;;;;;;;24.21;51.62;102308.38;5221151;28;20072;-74
2022/07/12 11:02:55;;;;;;;4.47;3.63;;;;;;;24.34;51.60;102317.75;5221547;28;20468;-74
2022/07/12 11:05:27;;;;;;;5.32;4.82;;;;;;;24.26;51.64;102306.19;5221670;28;20034;-74
2022/07/12 11:07:58;;;;;;;4.13;3.60;;;;;;;24.32;51.34;102315.28;5220855;28;20041;-75
2022/07/12 11:10:29;;;;;;;5.38;3.90;;;;;;;24.29;51.81;102308.31;5241892;28;20116;-77
2022/07/12 11:13:01;;;;;;;3.75;3.35;;;;;;;24.51;51.95;102309.13;5240949;28;20033;-78
2022/07/12 11:15:32;;;;;;;8.02;4.10;;;;;;;24.51;50.79;102309.94;5241475;28;20487;-77
2022/07/12 11:18:03;;;;;;;13.63;5.00;;;;;;;24.63;50.76;102299.81;5241760;28;20042;-77
2022/07/12 11:20:36;;;;;;;43.83;10.05;;;;;;;24.78;50.80;102301.97;5241668;28;20025;-77
2022/07/12 11:23:08;;;;;;;11.65;4.53;;;;;;;24.84;49.95;102303.38;5241225;28;20374;-77
2022/07/12 11:25:40;;;;;;;7.05;4.43;;;;;;;24.82;50.74;102294.41;5241861;28;20034;-75
2022/07/12 11:28:11;;;;;;;7.20;6.50;;;;;;;24.63;49.54;102297.81;5240888;28;20056;-78
2022/07/12 11:30:52;;;;;;;9.23;4.60;;;;;;;24.86;50.69;102289.69;5223413;28;20026;-76
2022/07/12 11:33:32;;;;;;;6.00;4.50;;;;;;;25.03;51.34;102300.00;5233311;28;20091;-76
2022/07/12 11:36:06;;;;;;;10.27;5.32;;;;;;;24.98;50.70;102286.03;5239264;28;20872;-77
2022/07/12 11:38:39;;;;;;;7.15;4.78;;;;;;;25.15;51.36;102288.63;5230272;28;20026;-75
2022/07/12 11:41:12;;;;;;;9.70;5.53;;;;;;;25.16;50.31;102281.81;5235228;28;20033;-76
2022/07/12 11:43:44;;;;;;;3.80;3.38;;;;;;;25.09;49.40;102287.22;5238259;28;20380;-77
2022/07/12 11:46:15;;;;;;;3.80;3.50;;;;;;;25.01;49.75;102285.31;5237082;28;20026;-77
2022/07/12 11:48:47;;;;;;;39.05;7.90;;;;;;;25.18;50.12;102278.59;5235046;28;20044;-77
2022/07/12 11:51:18;;;;;;;5.88;4.10;;;;;;;25.16;49.08;102284.66;5237661;28;20065;-76
2022/07/12 11:53:52;;;;;;;16.92;6.40;;;;;;;25.29;49.56;102296.00;5241614;28;20028;-76
2022/07/12 11:56:31;;;;;;;3.85;3.55;;;;;;;25.30;49.05;102298.47;5259284;28;20029;-76
2022/07/12 11:59:02;;;;;;;7.63;4.78;;;;;;;25.39;48.62;102289.84;5242844;28;20105;-74
2022/07/12 12:01:33;;;;;;;6.00;4.82;;;;;;;25.46;48.98;102290.03;5238660;28;20116;-74
2022/07/12 12:04:11;;;;;;;14.13;4.38;;;;;;;25.43;48.40;102290.78;5237603;28;20032;-74
2022/07/12 12:06:42;;;;;;;11.48;5.53;;;;;;;25.56;48.75;102292.41;5225758;28;20045;-74
2022/07/12 12:09:14;;;;;;;5.65;3.70;;;;;;;25.45;48.85;102285.56;5237668;28;20453;-75
2022/07/12 12:11:46;;;;;;;9.27;4.38;;;;;;;25.59;48.75;102282.31;5232722;28;20401;-74
2022/07/12 12:14:18;;;;;;;4.47;4.05;;;;;;;25.53;48.09;102284.59;5221698;28;20080;-72
2022/07/12 12:16:49;;;;;;;9.55;4.13;;;;;;;25.74;47.61;102283.59;5230160;28;20033;-74
2022/07/12 12:19:20;;;;;;;3.72;3.25;;;;;;;25.79;46.25;102274.81;5236183;28;20033;-75
2022/07/12 12:21:52;;;;;;;5.07;4.57;;;;;;;25.80;47.77;102273.66;5231835;28;20030;-75
2022/07/12 12:24:23;;;;;;;3.58;3.25;;;;;;;25.90;45.85;102273.19;5238662;28;20075;-75
2022/07/12 12:26:54;;;;;;;11.55;3.80;;;;;;;26.11;46.31;102278.66;5239344;28;20538;-74
2022/07/12 12:29:44;;;;;;;23.95;21.80;;;;;;;26.16;44.42;102272.72;5231675;28;20492;-73
2022/07/12 12:32:18;;;;;;;3.25;2.85;;;;;;;26.20;43.92;102278.47;5226271;28;20105;-71
2022/07/12 12:35:09;;;;;;;5.32;3.40;;;;;;;26.20;43.92;102275.63;5234902;28;20420;-73
2022/07/12 12:37:40;;;;;;;7.18;4.07;;;;;;;26.35;44.28;102268.34;5240342;28;20061;-73
2022/07/12 12:40:18;;;;;;;3.10;2.80;;;;;;;26.14;42.58;102263.72;5239916;28;20057;-73
2022/07/12 12:42:49;;;;;;;5.20;2.97;;;;;;;26.26;43.10;102265.69;5235640;28;20029;-73
2022/07/12 12:45:23;;;;;;;5.18;3.15;;;;;;;26.40;42.31;102265.22;5232911;28;20026;-73
2022/07/12 12:48:00;;;;;;;17.25;4.78;;;;;;;26.51;41.88;102268.34;5232277;28;20034;-73
2022/07/12 12:50:45;;;;;;;7.90;3.60;;;;;;;26.52;41.82;102261.50;5226905;28;20042;-74
2022/07/12 12:53:24;;;;;;;4.72;3.10;;;;;;;26.59;40.86;102258.88;5237711;28;20030;-74
2022/07/12 12:55:56;;;;;;;4.32;3.30;;;;;;;26.49;42.01;102257.38;5238042;28;20112;-73
2022/07/12 12:58:27;;;;;;;3.95;3.50;;;;;;;26.39;42.19;102264.41;5242461;28;20132;-75
2022/07/12 13:00:58;;;;;;;4.97;3.85;;;;;;;26.43;42.52;102270.19;5233284;28;20057;-74
2022/07/12 13:03:30;;;;;;;6.82;4.15;;;;;;;26.53;42.99;102261.16;5226830;28;20026;-74
2022/07/12 13:06:02;;;;;;;5.18;3.88;;;;;;;26.64;43.18;102258.59;5223932;28;20470;-72
2022/07/12 13:08:33;;;;;;;10.23;3.95;;;;;;;26.71;42.52;102258.78;5235956;28;20112;-75
2022/07/12 13:11:23;;;;;;;8.55;4.15;;;;;;;26.70;42.27;102254.28;5238115;28;20481;-74
2022/07/12 13:13:54;;;;;;;6.55;3.85;;;;;;;26.86;42.14;102262.81;5242276;28;20480;-75
2022/07/12 13:16:26;;;;;;;6.53;3.88;;;;;;;26.93;42.83;102265.03;5243991;28;20045;-74
2022/07/12 13:18:57;;;;;;;7.90;4.78;;;;;;;26.97;42.40;102261.09;5241578;28;20030;-73
2022/07/12 13:21:28;;;;;;;4.32;3.92;;;;;;;26.97;42.29;102249.69;5232433;28;20022;-73
2022/07/12 13:24:05;;;;;;;4.80;3.50;;;;;;;27.09;41.18;102240.19;5258312;28;20108;-73
2022/07/12 13:26:37;;;;;;;8.65;4.65;;;;;;;27.10;42.56;102247.56;5233074;28;20025;-74
2022/07/12 13:29:08;;;;;;;5.40;4.30;;;;;;;27.28;42.44;102245.16;5236433;28;20029;-73
2022/07/12 13:31:40;;;;;;;4.20;3.80;;;;;;;27.43;42.40;102244.31;5243739;28;20033;-74
2022/07/12 13:34:11;;;;;;;4.88;3.95;;;;;;;27.38;42.20;102240.91;5243899;28;20022;-74
2022/07/12 13:36:43;;;;;;;4.22;3.83;;;;;;;27.35;41.91;102239.63;5243100;28;20083;-74
2022/07/12 13:42:07;;;;;;;5.20;4.53;;;;;;;27.50;43.77;102243.63;5240781;28;20029;-75
2022/07/12 13:44:38;;;;;;;8.90;5.25;;;;;;;27.43;43.42;102244.31;5241941;28;20036;-74
2022/07/12 13:47:10;;;;;;;5.53;3.97;;;;;;;27.62;41.38;102240.63;5243228;28;20025;-72
2022/07/12 13:49:41;;;;;;;79.22;14.20;;;;;;;27.88;41.67;102239.19;5241189;28;20022;-73
2022/07/12 13:52:12;;;;;;;14.70;4.68;;;;;;;27.80;39.10;102251.59;5241327;28;20064;-73
2022/07/12 13:54:44;;;;;;;7.03;4.47;;;;;;;27.74;39.54;102242.53;5241279;28;20103;-73
2022/07/12 13:57:15;;;;;;;26.27;6.70;;;;;;;27.75;40.45;102225.03;5246224;28;20052;-73
2022/07/12 13:59:47;;;;;;;34.42;8.25;;;;;;;27.82;39.92;102229.28;5234197;28;20030;-75
2022/07/12 14:02:18;;;;;;;25.67;6.03;;;;;;;27.75;39.46;102219.34;5236517;28;20029;-75
2022/07/12 14:04:50;;;;;;;12.18;4.35;;;;;;;27.52;41.40;102222.09;5242523;28;20026;-75
2022/07/12 14:07:24;;;;;;;7.90;4.53;;;;;;;27.65;41.66;102222.78;5240852;28;20040;-75
2022/07/12 14:09:55;;;;;;;8.18;4.10;;;;;;;27.59;42.95;102221.44;5240386;28;20103;-74
2022/07/12 14:12:27;;;;;;;21.15;9.77;;;;;;;27.72;42.59;102220.09;5240311;28;20052;-74
2022/07/12 14:17:44;;;;;;;5.55;4.10;;;;;;;27.59;42.13;102212.09;5222092;28;20041;-76
2022/07/12 14:20:20;;;;;;;11.60;5.25;;;;;;;27.79;41.51;102207.19;5231001;28;20037;-75
2022/07/12 14:22:52;;;;;;;4.85;3.75;;;;;;;27.75;41.11;102195.72;5242667;28;20021;-76
2022/07/12 14:25:24;;;;;;;4.05;3.75;;;;;;;27.87;41.23;102203.34;5242199;28;20033;-76
2022/07/12 14:27:56;;;;;;;19.02;14.32;;;;;;;27.80;40.61;102203.16;5242966;28;20025;-75
2022/07/12 14:30:28;;;;;;;40.97;8.00;;;;;;;27.88;40.16;102202.94;5243864;28;20025;-76
2022/07/12 14:32:59;;;;;;;9.45;5.72;;;;;;;27.74;40.57;102197.75;5241219;28;20039;-76
2022/07/12 14:35:30;;;;;;;11.20;4.75;;;;;;;27.82;40.40;102197.94;5234647;28;20033;-76
2022/07/12 14:38:01;;;;;;;43.85;10.18;;;;;;;27.80;40.35;102203.97;5221702;28;20428;-75
2022/07/12 14:40:33;;;;;;;33.53;7.55;;;;;;;27.78;40.19;102199.84;5221952;28;20041;-75
2022/07/12 14:43:04;;;;;;;11.48;4.43;;;;;;;27.83;39.58;102196.72;5242061;28;20025;-74
2022/07/12 14:45:35;;;;;;;4.38;4.00;;;;;;;27.70;39.83;102196.03;5241193;28;20033;-74
2022/07/12 14:48:07;;;;;;;8.25;4.45;;;;;;;27.67;40.31;102196.78;5240415;28;20113;-74
2022/07/12 14:50:38;;;;;;;23.27;21.48;;;;;;;27.57;40.59;102192.50;5241878;28;20018;-75
2022/07/12 14:53:10;;;;;;;56.40;9.18;;;;;;;27.65;40.82;102188.59;5230586;28;20034;-73
2022/07/12 14:55:41;;;;;;;32.67;6.10;;;;;;;27.70;40.74;102190.31;5238619;28;20036;-73
2022/07/12 14:58:12;;;;;;;16.40;5.75;;;;;;;27.57;41.08;102186.81;5235567;28;20060;-73
2022/07/12 15:00:43;;;;;;;32.55;8.45;;;;;;;27.48;40.25;102186.19;5239073;28;20029;-74
2022/07/12 15:03:15;;;;;;;4.97;3.78;;;;;;;27.46;40.51;102180.06;5240240;28;20034;-72
2022/07/12 15:05:47;;;;;;;3.97;3.60;;;;;;;27.52;41.05;102181.41;5241986;28;20022;-72
2022/07/12 15:08:18;;;;;;;10.80;4.97;;;;;;;27.54;40.61;102181.84;5226922;28;20034;-73
2022/07/12 15:10:52;;;;;;;3.60;3.30;;;;;;;27.46;40.61;102182.91;5222139;28;20108;-73
2022/07/12 15:13:24;;;;;;;5.97;3.92;;;;;;;27.41;40.54;102171.81;5221417;28;20030;-74
2022/07/12 15:15:55;;;;;;;7.13;3.53;;;;;;;27.45;40.41;102176.38;5233903;28;20028;-74
2022/07/12 15:18:27;;;;;;;5.95;3.60;;;;;;;27.41;40.54;102168.97;5230640;28;20462;-74
2022/07/12 15:20:59;;;;;;;71.07;14.98;;;;;;;27.45;40.22;102164.97;5236322;28;20029;-75
2022/07/12 15:23:31;;;;;;;19.30;5.05;;;;;;;27.43;39.88;102169.38;5229527;28;20021;-74
2022/07/12 15:26:03;;;;;;;4.13;3.72;;;;;;;27.32;39.91;102161.44;5242467;28;20021;-74
2022/07/12 15:28:47;;;;;;;4.20;3.72;;;;;;;27.36;40.17;102166.41;5239394;28;20037;-74
2022/07/12 15:31:19;;;;;;;8.83;3.97;;;;;;;27.39;40.31;102160.78;5239911;28;20033;-75
2022/07/12 15:33:51;;;;;;;7.18;3.80;;;;;;;27.30;39.75;102157.31;5234793;28;20079;-72
2022/07/12 15:36:23;;;;;;;8.68;3.90;;;;;;;27.25;39.08;102169.84;5220442;28;20022;-73
2022/07/12 15:38:55;;;;;;;7.55;3.90;;;;;;;27.30;39.74;102169.56;5227016;28;20029;-74
2022/07/12 15:41:26;;;;;;;6.00;3.67;;;;;;;27.31;39.69;102170.38;5242884;28;20112;-73
2022/07/12 15:43:59;;;;;;;5.18;3.33;;;;;;;27.09;39.34;102167.00;5249566;28;20028;-75
2022/07/12 15:46:30;;;;;;;8.27;3.60;;;;;;;27.13;39.53;102164.25;5247725;28;20034;-74
2022/07/12 15:49:01;;;;;;;3.97;3.15;;;;;;;27.08;39.02;102164.53;5248089;28;20036;-74
2022/07/12 15:54:22;;;;;;;3.58;2.83;;;;;;;27.09;38.80;102157.63;5262047;28;20047;-75
2022/07/12 15:56:55;;;;;;;7.47;3.60;;;;;;;27.13;39.70;102150.00;5241870;28;20489;-74
2022/07/12 15:59:26;;;;;;;16.05;4.45;;;;;;;27.16;39.31;102154.97;5238813;28;20036;-75
2022/07/12 16:01:58;;;;;;;3.33;3.03;;;;;;;27.12;39.05;102145.50;5240272;28;20029;-73
2022/07/12 16:04:29;;;;;;;6.05;4.25;;;;;;;27.11;38.19;102144.69;5241788;28;20057;-73
2022/07/12 16:07:03;;;;;;;7.60;3.15;;;;;;;27.06;38.65;102138.47;5249728;28;20036;-73
2022/07/12 16:09:35;;;;;;;4.03;3.13;;;;;;;27.08;37.91;102142.59;5236766;28;20112;-71
2022/07/12 16:12:06;;;;;;;4.97;3.30;;;;;;;27.06;38.89;102142.13;5229687;28;20117;-70
2022/07/12 16:14:37;;;;;;;3.92;2.78;;;;;;;27.30;38.77;102143.06;5240862;28;20018;-70
2022/07/12 16:17:09;;;;;;;6.63;5.35;;;;;;;27.48;38.46;102134.91;5235145;28;20029;-70
2022/07/12 16:19:41;;;;;;;3.65;2.72;;;;;;;27.25;37.79;102132.84;5223299;28;20025;-69
2022/07/12 16:22:12;;;;;;;4.55;2.75;;;;;;;27.24;38.26;102133.19;5228288;28;20081;-68
2022/07/12 16:24:43;;;;;;;3.22;2.75;;;;;;;27.25;37.30;102135.69;5237359;28;20052;-69
2022/07/12 16:27:15;;;;;;;3.10;2.80;;;;;;;27.22;37.71;102135.56;5252778;28;20477;-68
2022/07/12 16:29:46;;;;;;;4.68;2.70;;;;;;;27.22;38.61;102133.56;5247810;28;20073;-69
2022/07/12 16:32:17;;;;;;;14.90;13.63;;;;;;;27.30;38.61;102137.38;5244206;28;20045;-69
2022/07/12 16:34:48;;;;;;;5.03;4.60;;;;;;;27.24;37.66;102134.00;5236320;28;20422;-69
2022/07/12 16:37:20;;;;;;;3.70;3.08;;;;;;;27.25;38.20;102134.81;5240432;28;20469;-70
2022/07/12 16:39:51;;;;;;;3.13;2.83;;;;;;;27.27;38.28;102133.25;5246065;28;20037;-69
2022/07/12 16:42:23;;;;;;;3.50;2.80;;;;;;;27.14;38.05;102128.88;5246574;28;20100;-69
2022/07/12 16:44:54;;;;;;;3.28;2.67;;;;;;;27.24;38.27;102133.19;5254931;28;20036;-70
2022/07/12 16:47:25;;;;;;;4.28;2.70;;;;;;;27.18;38.28;102138.38;5245988;28;20064;-70
2022/07/12 16:49:57;;;;;;;5.95;3.20;;;;;;;27.07;37.71;102137.25;5238399;28;20040;-69
2022/07/12 16:52:28;;;;;;;3.85;2.47;;;;;;;27.08;38.00;102147.47;5232137;28;20108;-69
2022/07/12 16:55:00;;;;;;;3.70;2.85;;;;;;;27.04;37.98;102135.97;5250848;28;20030;-69
2022/07/12 16:57:31;;;;;;;5.00;2.70;;;;;;;27.08;38.03;102136.06;5247795;28;20131;-69
2022/07/12 17:00:08;;;;;;;2.88;2.47;;;;;;;27.07;38.10;102128.72;5244254;28;20033;-69
2022/07/12 17:02:41;;;;;;;3.42;3.13;;;;;;;27.06;38.15;102127.88;5245140;28;20388;-69
2022/07/12 17:05:12;;;;;;;3.13;2.60;;;;;;;27.06;37.75;102127.88;5240913;28;20481;-69
2022/07/12 17:07:43;;;;;;;5.93;2.78;;;;;;;27.02;38.15;102132.69;5259648;28;20025;-69
2022/07/12 17:10:15;;;;;;;5.60;5.15;;;;;;;27.01;38.62;102136.72;5237640;28;20491;-69
2022/07/12 17:12:46;;;;;;;3.53;3.00;;;;;;;26.96;38.52;102127.66;5250188;28;20074;-69
2022/07/12 17:15:17;;;;;;;3.53;2.47;;;;;;;26.86;39.47;102129.88;5244361;28;20062;-69
2022/07/12 17:17:49;;;;;;;5.50;3.22;;;;;;;26.93;39.29;102131.25;5246016;28;20033;-70
2022/07/12 17:20:20;;;;;;;6.03;3.25;;;;;;;26.85;39.39;102125.38;5244247;28;20017;-69
2022/07/12 17:22:51;;;;;;;3.58;3.28;;;;;;;26.81;39.59;102130.16;5257686;28;20017;-69
2022/07/12 17:25:23;;;;;;;4.50;4.10;;;;;;;26.78;39.74;102122.38;5239118;28;20033;-69
2022/07/12 17:27:56;;;;;;;5.28;4.15;;;;;;;26.83;39.78;102132.66;5243292;28;20028;-68
2022/07/12 17:30:30;;;;;;;3.85;3.55;;;;;;;26.78;39.68;102122.38;5244137;28;20446;-69
